createdAt,value
2018-06-05T00:00:18.637Z,38.00
2018-06-05T00:02:52.975Z,37.90
2018-06-05T00:05:27.381Z,38.00
2018-06-05T00:08:01.712Z,38.00
2018-06-05T00:10:35.865Z,38.00
2018-06-05T00:13:10.210Z,37.90
2018-06-05T00:15:44.611Z,39.10
2018-06-05T00:18:19.052Z,39.60
2018-06-05T00:20:54.911Z,39.40
2018-06-05T00:23:29.131Z,40.40
2018-06-05T00:26:03.546Z,41.10
2018-06-05T00:28:37.892Z,41.10
2018-06-05T00:31:12.269Z,41.90
2018-06-05T00:33:46.450Z,41.90
2018-06-05T00:36:20.797Z,42.20
2018-06-05T00:38:55.056Z,43.30
2018-06-05T00:41:29.434Z,45.20
2018-06-05T00:44:04.013Z,45.70
2018-06-05T00:46:38.318Z,46.40
2018-06-05T00:49:12.570Z,46.40
2018-06-05T00:51:58.168Z,46.50
2018-06-05T00:54:32.432Z,47.30
2018-06-05T00:57:06.691Z,47.10
2018-06-05T00:59:40.979Z,48.00
2018-06-05T01:02:15.241Z,47.40
2018-06-05T01:04:49.438Z,46.70
2018-06-05T01:07:24.755Z,47.50
2018-06-05T01:09:59.141Z,47.80
2018-06-05T01:12:33.318Z,47.70
2018-06-05T01:17:42.468Z,47.10
2018-06-05T01:20:16.617Z,47.80
2018-06-05T01:22:51.037Z,47.10
2018-06-05T01:25:25.734Z,46.40
2018-06-05T01:28:00.429Z,46.70
2018-06-05T01:30:34.796Z,47.60
2018-06-05T01:33:09.017Z,46.50
2018-06-05T01:35:43.414Z,46.20
2018-06-05T01:38:17.695Z,46.90
2018-06-05T01:40:52.022Z,46.70
2018-06-05T01:43:26.402Z,47.50
2018-06-05T01:46:00.679Z,47.00
2018-06-05T01:48:34.891Z,46.20
2018-06-05T01:51:09.284Z,46.00
2018-06-05T01:53:44.431Z,44.40
2018-06-05T01:56:18.743Z,44.90
2018-06-05T01:58:52.862Z,45.60
2018-06-05T02:01:27.184Z,45.70
2018-06-05T02:04:01.507Z,46.20
2018-06-05T02:06:35.755Z,46.10
2018-06-05T02:09:10.051Z,46.60
2018-06-05T02:11:44.517Z,45.70
2018-06-05T02:16:52.938Z,45.50
2018-06-05T02:19:27.160Z,45.90
2018-06-05T02:22:02.898Z,46.10
2018-06-05T02:24:37.255Z,45.30
2018-06-05T02:27:11.410Z,44.50
2018-06-05T02:29:45.687Z,44.50
2018-06-05T02:32:19.915Z,45.40
2018-06-05T02:34:54.126Z,44.70
2018-06-05T02:37:28.517Z,44.80
2018-06-05T02:40:02.864Z,44.20
2018-06-05T02:42:37.208Z,44.00
2018-06-05T02:45:11.460Z,43.80
2018-06-05T02:47:45.677Z,43.90
2018-06-05T02:50:19.800Z,44.10
2018-06-05T02:52:54.209Z,44.40
2018-06-05T02:55:29.098Z,43.10
2018-06-05T02:58:03.456Z,43.30
2018-06-05T03:00:37.793Z,43.20
2018-06-05T03:03:12.205Z,43.70
2018-06-05T03:05:46.764Z,43.80
2018-06-05T03:08:21.006Z,43.00
2018-06-05T03:10:55.367Z,41.50
2018-06-05T03:13:29.896Z,42.20
2018-06-05T03:16:04.158Z,41.90
2018-06-05T03:18:38.359Z,42.60
2018-06-05T03:21:12.563Z,42.70
2018-06-05T03:23:46.858Z,42.20
2018-06-05T03:26:21.036Z,41.90
2018-06-05T03:28:55.301Z,41.90
2018-06-05T03:31:29.622Z,41.20
2018-06-05T03:34:03.880Z,42.00
2018-06-05T03:36:39.299Z,42.00
2018-06-05T03:39:13.466Z,41.90
2018-06-05T03:41:47.668Z,41.20
2018-06-05T03:44:21.883Z,39.70
2018-06-05T03:46:56.243Z,39.20
2018-06-05T03:49:34.793Z,38.50
2018-06-05T03:52:09.818Z,38.30
2018-06-05T03:54:43.967Z,37.90
2018-06-05T03:57:18.152Z,37.30
2018-06-05T03:59:52.477Z,38.00
2018-06-05T04:02:26.844Z,37.40
2018-06-05T04:05:01.138Z,37.40
2018-06-05T04:07:35.427Z,37.80
2018-06-05T04:10:09.866Z,37.50
2018-06-05T04:12:44.282Z,37.50
2018-06-05T04:15:18.453Z,37.50
2018-06-05T04:17:52.772Z,37.50
2018-06-05T04:20:27.012Z,37.60
2018-06-05T04:23:01.658Z,37.00
2018-06-05T04:28:10.069Z,35.30
2018-06-05T04:30:44.405Z,34.70
2018-06-05T04:33:18.782Z,34.40
2018-06-05T04:35:53.121Z,33.40
2018-06-05T04:38:27.336Z,32.80
2018-06-05T04:41:01.570Z,32.20
2018-06-05T04:43:36.016Z,31.50
2018-06-05T04:46:10.233Z,30.60
2018-06-05T04:48:44.483Z,30.00
2018-06-05T04:51:18.928Z,30.40
2018-06-05T04:53:53.224Z,30.80
2018-06-05T04:56:27.590Z,30.40
2018-06-05T04:59:01.932Z,30.60
2018-06-05T05:01:36.303Z,30.50
2018-06-05T05:04:10.636Z,30.10
2018-06-05T05:06:44.948Z,29.90
2018-06-05T05:09:20.486Z,29.80
2018-06-05T05:11:55.394Z,29.90
2018-06-05T05:14:30.024Z,27.70
2018-06-05T05:17:04.175Z,29.20
2018-06-05T05:19:38.286Z,28.90
2018-06-05T05:22:12.557Z,28.60
2018-06-05T05:24:46.870Z,28.50
2018-06-05T05:27:21.027Z,28.30
2018-06-05T05:29:55.242Z,28.70
2018-06-05T05:32:29.442Z,28.30
2018-06-05T05:35:03.730Z,27.30
2018-06-05T05:37:39.005Z,26.10
2018-06-05T05:40:13.133Z,24.60
2018-06-05T05:42:47.306Z,23.60
2018-06-05T05:45:21.513Z,24.20
2018-06-05T05:47:55.728Z,22.60
2018-06-05T05:50:29.995Z,23.40
2018-06-05T05:53:05.447Z,25.40
2018-06-05T05:55:39.990Z,25.90
2018-06-05T05:58:14.146Z,25.70
2018-06-05T06:00:50.183Z,25.90
2018-06-05T06:03:25.853Z,24.20
2018-06-05T06:06:00.020Z,23.60
2018-06-05T06:08:34.524Z,23.70
2018-06-05T06:11:09.740Z,24.80
2018-06-05T06:13:43.927Z,26.20
2018-06-05T06:16:18.149Z,27.70
2018-06-05T06:18:52.410Z,28.00
2018-06-05T06:21:27.987Z,28.80
2018-06-05T06:24:02.245Z,27.90
2018-06-05T06:26:37.607Z,27.00
2018-06-05T06:29:11.683Z,26.80
2018-06-05T06:31:47.543Z,26.60
2018-06-05T06:34:21.846Z,26.80
2018-06-05T06:36:55.950Z,27.20
2018-06-05T06:39:32.238Z,28.50
2018-06-05T06:42:06.753Z,29.30
2018-06-05T06:44:40.990Z,29.40
2018-06-05T06:47:15.313Z,29.80
2018-06-05T06:49:49.668Z,30.10
2018-06-05T06:52:25.608Z,29.40
2018-06-05T06:55:01.148Z,29.90
2018-06-05T06:57:36.371Z,29.80
2018-06-05T07:00:11.587Z,30.50
2018-06-05T07:02:46.526Z,31.20
2018-06-05T07:05:20.754Z,31.80
2018-06-05T07:07:55.962Z,30.90
2018-06-05T07:10:30.272Z,31.20
2018-06-05T07:13:05.513Z,30.30
2018-06-05T07:15:40.506Z,30.20
2018-06-05T07:18:15.653Z,31.50
2018-06-05T07:20:50.065Z,32.10
2018-06-05T07:23:25.297Z,33.10
2018-06-05T07:25:59.584Z,32.80
2018-06-05T07:28:33.726Z,32.10
2018-06-05T07:31:08.017Z,30.80
2018-06-05T07:33:42.404Z,29.40
2018-06-05T07:36:16.754Z,29.40
2018-06-05T07:38:51.107Z,29.30
2018-06-05T07:41:27.753Z,28.70
2018-06-05T07:46:36.251Z,28.60
2018-06-05T07:49:16.032Z,27.20
2018-06-05T07:51:50.212Z,27.40
2018-06-05T07:54:24.485Z,27.40
2018-06-05T07:56:59.018Z,26.90
2018-06-05T07:59:33.201Z,27.50
2018-06-05T08:02:07.910Z,27.50
2018-06-05T08:04:42.581Z,26.70
2018-06-05T08:07:16.844Z,26.40
2018-06-05T08:09:51.125Z,28.30
2018-06-05T08:12:26.671Z,28.00
2018-06-05T08:15:01.148Z,26.10
2018-06-05T08:17:35.822Z,26.10
2018-06-05T08:20:10.852Z,26.10
2018-06-05T08:22:52.799Z,26.00
2018-06-05T08:25:27.247Z,25.40
2018-06-05T08:28:02.214Z,23.30
2018-06-05T08:30:36.541Z,22.60
2018-06-05T08:33:11.235Z,21.20
2018-06-05T08:35:45.368Z,22.60
2018-06-05T08:38:19.560Z,21.90
2018-06-05T08:40:54.066Z,21.00
2018-06-05T08:43:28.336Z,21.00
2018-06-05T08:46:02.655Z,19.20
2018-06-05T08:51:10.839Z,19.30
2018-06-05T08:53:45.091Z,18.50
2018-06-05T08:56:19.731Z,17.50
2018-06-05T08:58:53.958Z,17.60
2018-06-05T09:01:28.246Z,17.50
2018-06-05T09:04:02.456Z,18.10
2018-06-05T09:06:36.774Z,18.00
2018-06-05T09:09:10.894Z,18.30
2018-06-05T09:11:46.223Z,18.10
2018-06-05T09:14:20.541Z,16.90
2018-06-05T09:16:54.755Z,15.10
2018-06-05T09:19:29.752Z,14.70
2018-06-05T09:22:06.352Z,14.60
2018-06-05T09:24:41.154Z,13.10
2018-06-05T09:27:15.429Z,12.10
2018-06-05T09:29:49.765Z,10.90
2018-06-05T09:34:59.260Z,10.50
2018-06-05T09:37:33.522Z,9.50
2018-06-05T09:40:08.413Z,7.10
2018-06-05T09:42:42.890Z,5.90
2018-06-05T09:45:17.249Z,5.30
2018-06-05T09:47:52.196Z,4.40
2018-06-05T09:50:26.533Z,2.60
2018-06-05T09:53:01.741Z,1.60
2018-06-05T09:55:35.952Z,1.60
2018-06-05T09:58:10.217Z,1.70
2018-06-05T10:00:51.077Z,1.00
2018-06-05T10:03:25.328Z,1.00
2018-06-05T10:05:59.684Z,1.00
2018-06-05T10:08:34.630Z,1.00
2018-06-05T10:11:09.928Z,1.00
2018-06-05T10:13:44.246Z,1.00
2018-06-05T10:16:18.925Z,1.00
2018-06-05T10:18:53.204Z,1.00
2018-06-05T10:21:27.697Z,1.00
2018-06-05T10:24:01.984Z,1.00
2018-06-05T10:26:36.300Z,1.00
2018-06-05T10:29:10.623Z,1.00
2018-06-05T10:31:44.767Z,1.00
2018-06-05T10:34:18.889Z,1.00
2018-06-05T10:36:53.633Z,1.00
2018-06-05T10:39:27.910Z,1.00
2018-06-05T10:42:02.255Z,1.00
2018-06-05T10:44:36.552Z,1.00
2018-06-05T10:47:10.843Z,1.00
2018-06-05T10:49:45.001Z,1.00
2018-06-05T10:52:19.298Z,1.00
2018-06-05T10:54:53.653Z,1.00
2018-06-05T10:57:28.892Z,1.00
2018-06-05T11:00:03.543Z,1.00
2018-06-05T11:02:39.781Z,1.00
2018-06-05T11:05:14.165Z,1.00
2018-06-05T11:07:48.617Z,1.00
2018-06-05T11:10:24.044Z,1.00
2018-06-05T11:12:58.182Z,1.00
2018-06-05T11:15:37.137Z,1.00
2018-06-05T11:18:11.376Z,1.00
2018-06-05T11:20:45.698Z,1.00
2018-06-05T11:23:20.074Z,1.00
2018-06-05T11:25:54.260Z,1.00
2018-06-05T11:28:29.203Z,1.00
2018-06-05T11:31:03.580Z,1.00
2018-06-05T11:33:38.327Z,1.00
2018-06-05T11:36:12.628Z,1.00
2018-06-05T11:38:47.893Z,1.00
2018-06-05T11:41:22.081Z,1.00
2018-06-05T11:43:57.973Z,1.00
2018-06-05T11:46:33.209Z,1.00
2018-06-05T11:49:08.516Z,1.00
2018-06-05T11:51:42.886Z,1.00
2018-06-05T11:54:17.347Z,1.00
2018-06-05T11:56:52.036Z,1.00
2018-06-05T11:59:26.364Z,1.00
2018-06-05T12:02:01.088Z,1.00
2018-06-05T12:04:37.598Z,1.00
2018-06-05T12:07:12.392Z,1.00
2018-06-05T12:09:46.601Z,1.00
2018-06-05T12:12:22.076Z,1.00
2018-06-05T12:14:56.392Z,1.00
2018-06-05T12:17:30.686Z,1.00
2018-06-05T12:20:05.631Z,1.00
2018-06-05T12:22:40.537Z,1.00
2018-06-05T12:25:14.783Z,1.00
2018-06-05T12:27:50.481Z,1.00
2018-06-05T12:30:25.008Z,1.00
2018-06-05T12:32:59.854Z,1.00
2018-06-05T12:38:10.069Z,1.00
2018-06-05T12:40:48.262Z,1.00
2018-06-05T12:43:22.680Z,1.00
2018-06-05T12:45:56.885Z,1.00
2018-06-05T12:48:32.014Z,1.00
2018-06-05T12:51:06.521Z,1.00
2018-06-05T12:53:40.811Z,1.00
2018-06-05T12:56:15.169Z,1.00
2018-06-05T12:58:49.485Z,1.00
2018-06-05T13:01:23.808Z,1.00
2018-06-05T13:06:32.062Z,1.00
2018-06-05T13:09:07.527Z,1.00
2018-06-05T13:11:42.356Z,1.00
2018-06-05T13:14:16.541Z,1.00
2018-06-05T13:16:51.854Z,1.00
2018-06-05T13:19:26.703Z,1.00
2018-06-05T13:22:00.953Z,1.00
2018-06-05T13:24:36.241Z,1.00
2018-06-05T13:27:10.524Z,1.00
2018-06-05T13:29:44.813Z,1.00
2018-06-05T13:32:19.389Z,1.00
2018-06-05T13:34:53.712Z,1.00
2018-06-05T13:37:28.237Z,1.00
2018-06-05T13:42:36.665Z,1.00
2018-06-05T13:45:11.843Z,1.00
2018-06-05T13:47:46.183Z,1.00
2018-06-05T13:50:20.753Z,1.00
2018-06-05T13:52:55.259Z,1.00
2018-06-05T13:55:29.572Z,1.00
2018-06-05T13:58:03.822Z,1.00
2018-06-05T14:00:38.143Z,1.00
2018-06-05T14:03:12.448Z,1.00
2018-06-05T14:05:46.797Z,1.00
2018-06-05T14:08:21.113Z,1.00
2018-06-05T14:10:55.305Z,1.00
2018-06-05T14:13:31.209Z,1.00
2018-06-05T14:16:05.578Z,1.00
2018-06-05T14:18:40.647Z,1.00
2018-06-05T14:21:14.847Z,1.00
2018-06-05T14:23:49.121Z,1.00
2018-06-05T14:26:23.515Z,1.00
2018-06-05T14:28:57.877Z,1.00
2018-06-05T14:31:32.610Z,1.00
2018-06-05T14:34:07.280Z,1.00
2018-06-05T14:36:41.561Z,1.00
2018-06-05T14:39:15.723Z,1.00
2018-06-05T14:41:50.020Z,1.00
2018-06-05T14:44:24.272Z,1.00
2018-06-05T14:46:59.233Z,1.00
2018-06-05T14:49:34.109Z,1.00
2018-06-05T14:52:08.429Z,1.00
2018-06-05T14:54:43.430Z,1.00
2018-06-05T14:57:17.749Z,1.00
2018-06-05T14:59:52.584Z,1.00
2018-06-05T15:02:26.740Z,1.00
2018-06-05T15:05:02.481Z,1.00
2018-06-05T15:07:36.696Z,1.00
2018-06-05T15:10:11.004Z,1.00
2018-06-05T15:12:47.291Z,1.00
2018-06-05T15:15:21.809Z,1.00
2018-06-05T15:17:56.068Z,1.00
2018-06-05T15:20:30.388Z,1.00
2018-06-05T15:23:04.728Z,1.00
2018-06-05T15:25:39.054Z,1.00
2018-06-05T15:28:13.433Z,1.00
2018-06-05T15:30:47.889Z,1.00
2018-06-05T15:33:23.255Z,1.00
2018-06-05T15:35:58.578Z,1.00
2018-06-05T15:38:33.418Z,1.00
2018-06-05T15:41:07.648Z,1.00
2018-06-05T15:43:42.524Z,1.00
2018-06-05T15:46:16.875Z,1.00
2018-06-05T15:48:51.704Z,1.00
2018-06-05T15:51:26.048Z,1.00
2018-06-05T15:54:00.486Z,1.00
2018-06-05T15:56:34.775Z,1.00
2018-06-05T15:59:09.328Z,1.00
2018-06-05T16:01:43.646Z,1.00
2018-06-05T16:04:18.009Z,1.00
2018-06-05T16:06:52.173Z,1.00
2018-06-05T16:09:27.224Z,1.00
2018-06-05T16:12:02.500Z,1.00
2018-06-05T16:14:36.881Z,1.00
2018-06-05T16:17:11.286Z,1.00
2018-06-05T16:19:45.503Z,1.00
2018-06-05T16:22:19.774Z,1.00
2018-06-05T16:24:53.988Z,1.00
2018-06-05T16:27:29.328Z,1.00
2018-06-05T16:30:04.515Z,1.00
2018-06-05T16:32:39.495Z,1.00
2018-06-05T16:35:14.348Z,1.00
2018-06-05T16:37:48.441Z,1.00
2018-06-05T16:40:22.801Z,1.00
2018-06-05T16:42:57.596Z,1.00
2018-06-05T16:45:31.795Z,1.00
2018-06-05T16:48:06.321Z,1.00
2018-06-05T16:50:40.669Z,1.00
2018-06-05T16:53:14.984Z,1.00
2018-06-05T16:55:50.212Z,1.00
2018-06-05T16:58:25.025Z,1.00
2018-06-05T17:00:59.178Z,1.00
2018-06-05T17:03:33.489Z,1.00
2018-06-05T17:06:08.849Z,1.00
2018-06-05T17:08:43.421Z,1.00
2018-06-05T17:11:17.673Z,1.00
2018-06-05T17:13:51.935Z,1.00
2018-06-05T17:16:27.793Z,1.00
2018-06-05T17:19:02.424Z,1.00
2018-06-05T17:21:38.045Z,1.00
2018-06-05T17:24:12.333Z,1.00
2018-06-05T17:26:46.710Z,1.00
2018-06-05T17:29:20.841Z,1.00
2018-06-05T17:31:55.081Z,1.00
2018-06-05T17:37:03.611Z,1.00
2018-06-05T17:39:38.091Z,1.00
2018-06-05T17:42:12.418Z,1.00
2018-06-05T17:44:46.829Z,1.00
2018-06-05T17:47:21.073Z,1.00
2018-06-05T17:49:55.455Z,1.00
2018-06-05T17:52:29.718Z,1.00
2018-06-05T17:55:04.738Z,1.00
2018-06-05T17:57:38.861Z,1.00
2018-06-05T18:00:13.170Z,1.00
2018-06-05T18:02:47.489Z,1.00
2018-06-05T18:05:21.624Z,1.00
2018-06-05T18:07:56.532Z,1.00
2018-06-05T18:10:32.055Z,1.00
2018-06-05T18:13:06.181Z,1.00
2018-06-05T18:15:40.479Z,1.00
2018-06-05T18:18:15.666Z,1.00
2018-06-05T18:20:49.990Z,1.00
2018-06-05T18:23:24.271Z,1.00
2018-06-05T18:25:59.046Z,1.00
2018-06-05T18:31:07.233Z,1.00
2018-06-05T18:33:41.535Z,1.00
2018-06-05T18:36:15.915Z,1.00
2018-06-05T18:38:51.728Z,1.00
2018-06-05T18:41:26.590Z,1.00
2018-06-05T18:44:00.753Z,1.00
2018-06-05T18:46:35.046Z,1.00
2018-06-05T18:51:43.840Z,1.00
2018-06-05T18:54:18.327Z,1.00
2018-06-05T18:56:52.717Z,1.00
2018-06-05T18:59:27.089Z,1.00
2018-06-05T19:02:01.523Z,1.00
2018-06-05T19:07:09.663Z,1.00
2018-06-05T19:09:44.125Z,1.00
2018-06-05T19:12:18.348Z,1.00
2018-06-05T19:14:52.630Z,1.00
2018-06-05T19:17:27.880Z,1.00
2018-06-05T19:20:02.253Z,1.00
2018-06-05T19:22:36.434Z,1.00
2018-06-05T19:25:11.867Z,1.00
2018-06-05T19:27:46.104Z,1.00
2018-06-05T19:30:20.956Z,1.00
2018-06-05T19:32:56.044Z,1.00
2018-06-05T19:35:30.256Z,1.00
2018-06-05T19:38:11.289Z,1.00
2018-06-05T19:40:46.432Z,1.00
2018-06-05T19:43:20.779Z,1.00
2018-06-05T19:45:55.336Z,1.00
2018-06-05T19:48:29.596Z,1.00
2018-06-05T19:51:04.111Z,1.00
2018-06-05T19:53:38.390Z,1.00
2018-06-05T19:56:12.671Z,1.00
2018-06-05T19:58:46.850Z,1.00
2018-06-05T20:01:21.105Z,1.00
2018-06-05T20:03:55.345Z,1.00
2018-06-05T20:06:29.549Z,1.00
2018-06-05T20:09:04.263Z,1.00
2018-06-05T20:11:38.471Z,1.00
2018-06-05T20:14:12.851Z,1.00
2018-06-05T20:16:47.185Z,1.00
2018-06-05T20:19:21.616Z,1.00
2018-06-05T20:21:55.836Z,1.00
2018-06-05T20:24:30.108Z,1.00
2018-06-05T20:27:04.389Z,1.00
2018-06-05T20:29:38.676Z,1.00
2018-06-05T20:32:13.064Z,1.00
2018-06-05T20:34:47.159Z,1.50
2018-06-05T20:37:21.556Z,2.10
2018-06-05T20:39:55.838Z,2.00
2018-06-05T20:42:30.040Z,2.90
2018-06-05T20:45:05.228Z,4.50
2018-06-05T20:47:39.747Z,5.20
2018-06-05T20:50:14.083Z,5.30
2018-06-05T20:52:48.312Z,5.50
2018-06-05T20:55:23.325Z,5.70
2018-06-05T20:57:57.627Z,6.60
2018-06-05T21:00:32.877Z,6.40
2018-06-05T21:03:07.578Z,6.50
2018-06-05T21:05:42.954Z,6.80
2018-06-05T21:08:17.867Z,7.50
2018-06-05T21:10:52.798Z,9.00
2018-06-05T21:13:27.277Z,9.30
2018-06-05T21:16:01.974Z,10.80
2018-06-05T21:18:36.300Z,11.60
2018-06-05T21:21:10.602Z,12.70
2018-06-05T21:23:44.858Z,12.90
2018-06-05T21:26:19.119Z,13.50
2018-06-05T21:28:53.438Z,14.10
2018-06-05T21:31:27.655Z,14.70
2018-06-05T21:34:02.198Z,15.60
2018-06-05T21:36:37.323Z,16.40
2018-06-05T21:39:11.447Z,16.30
2018-06-05T21:41:45.610Z,16.80
2018-06-05T21:44:20.284Z,16.90
2018-06-05T21:46:54.492Z,17.60
2018-06-05T21:49:28.779Z,18.20
2018-06-05T21:52:03.143Z,18.40
2018-06-05T21:54:37.650Z,18.80
2018-06-05T21:57:11.823Z,19.50
2018-06-05T21:59:46.202Z,19.80
2018-06-05T22:02:20.262Z,20.50
2018-06-05T22:04:56.016Z,20.90
2018-06-05T22:07:30.205Z,21.20
2018-06-05T22:10:04.427Z,21.90
2018-06-05T22:12:38.706Z,22.00
2018-06-05T22:15:13.027Z,22.70
2018-06-05T22:17:48.266Z,23.30
2018-06-05T22:20:22.648Z,23.20
2018-06-05T22:22:56.916Z,23.70
2018-06-05T22:25:31.258Z,23.50
2018-06-05T22:28:05.547Z,23.90
2018-06-05T22:30:39.758Z,24.60
2018-06-05T22:33:14.893Z,25.20
2018-06-05T22:35:49.164Z,25.90
2018-06-05T22:38:24.452Z,26.40
2018-06-05T22:40:58.744Z,26.70
2018-06-05T22:43:33.015Z,27.10
2018-06-05T22:46:07.858Z,27.50
2018-06-05T22:48:43.033Z,28.00
2018-06-05T22:51:17.138Z,28.40
2018-06-05T22:53:51.360Z,28.80
2018-06-05T22:56:25.458Z,29.40
2018-06-05T22:58:59.794Z,30.00
2018-06-05T23:01:35.589Z,30.00
2018-06-05T23:04:09.690Z,30.00
2018-06-05T23:06:44.772Z,30.50
2018-06-05T23:09:19.002Z,30.60
2018-06-05T23:11:53.347Z,31.30
2018-06-05T23:14:28.157Z,32.00
2018-06-05T23:17:02.379Z,32.20
2018-06-05T23:19:36.758Z,32.30
2018-06-05T23:22:11.007Z,32.60
2018-06-05T23:24:45.251Z,32.50
2018-06-05T23:27:21.333Z,32.60
2018-06-05T23:29:55.986Z,33.20
2018-06-05T23:32:30.368Z,33.10
2018-06-05T23:35:04.634Z,33.40
2018-06-05T23:37:38.958Z,34.00
2018-06-05T23:40:14.143Z,34.10
2018-06-05T23:42:48.238Z,35.10
2018-06-05T23:45:23.436Z,35.10
2018-06-05T23:47:57.683Z,34.90
2018-06-05T23:50:31.881Z,34.50
2018-06-05T23:53:06.075Z,34.10
2018-06-05T23:58:14.305Z,32.60
